sensor_id;sensor_type;location;lat;lon;timestamp;P1;durP1;ratioP1;P2;durP2;ratioP2
76733;SDS011;65660;53.288;14.666;2023-04-29T00:02:19;20.60;;;14.17;;
76733;SDS011;65660;53.288;14.666;2023-04-29T00:07:20;22.87;;;14.90;;
76733;SDS011;65660;53.288;14.666;2023-04-29T00:12:21;21.53;;;14.53;;
76733;SDS011;65660;53.288;14.666;2023-04-29T00:17:22;21.67;;;14.57;;
76733;SDS011;65660;53.288;14.666;2023-04-29T00:22:23;20.33;;;14.47;;
76733;SDS011;65660;53.288;14.666;2023-04-29T00:27:24;19.47;;;13.17;;
76733;SDS011;65660;53.288;14.666;2023-04-29T00:32:25;20.57;;;13.70;;
76733;SDS011;65660;53.288;14.666;2023-04-29T00:37:25;20.83;;;13.97;;
76733;SDS011;65660;53.288;14.666;2023-04-29T00:42:27;22.40;;;14.83;;
76733;SDS011;65660;53.288;14.666;2023-04-29T00:47:28;20.40;;;15.37;;
76733;SDS011;65660;53.288;14.666;2023-04-29T00:52:29;25.43;;;16.30;;
76733;SDS011;65660;53.288;14.666;2023-04-29T00:57:30;18.07;;;14.43;;
76733;SDS011;65660;53.288;14.666;2023-04-29T01:02:33;19.57;;;14.47;;
76733;SDS011;65660;53.288;14.666;2023-04-29T01:12:44;20.67;;;13.90;;
76733;SDS011;65660;53.288;14.666;2023-04-29T01:17:49;17.90;;;13.90;;
76733;SDS011;65660;53.288;14.666;2023-04-29T01:23:00;22.43;;;15.20;;
76733;SDS011;65660;53.288;14.666;2023-04-29T01:44:15;24.10;;;16.10;;
76733;SDS011;65660;53.288;14.666;2023-04-29T01:49:20;23.23;;;16.13;;
76733;SDS011;65660;53.288;14.666;2023-04-29T01:54:23;16.87;;;13.53;;
76733;SDS011;65660;53.288;14.666;2023-04-29T01:59:24;18.57;;;13.90;;
76733;SDS011;65660;53.288;14.666;2023-04-29T02:04:25;19.17;;;13.97;;
76733;SDS011;65660;53.288;14.666;2023-04-29T02:09:26;17.53;;;13.23;;
76733;SDS011;65660;53.288;14.666;2023-04-29T02:14:26;20.53;;;13.73;;
76733;SDS011;65660;53.288;14.666;2023-04-29T02:19:27;18.30;;;14.10;;
76733;SDS011;65660;53.288;14.666;2023-04-29T02:24:28;20.37;;;14.63;;
76733;SDS011;65660;53.288;14.666;2023-04-29T02:29:29;21.53;;;15.03;;
76733;SDS011;65660;53.288;14.666;2023-04-29T02:34:32;19.53;;;14.47;;
76733;SDS011;65660;53.288;14.666;2023-04-29T02:39:33;25.27;;;16.70;;
76733;SDS011;65660;53.288;14.666;2023-04-29T02:44:34;22.57;;;16.23;;
76733;SDS011;65660;53.288;14.666;2023-04-29T02:49:35;22.10;;;15.20;;
76733;SDS011;65660;53.288;14.666;2023-04-29T02:54:36;24.20;;;15.43;;
76733;SDS011;65660;53.288;14.666;2023-04-29T02:59:37;26.13;;;16.20;;
76733;SDS011;65660;53.288;14.666;2023-04-29T03:04:38;24.87;;;16.77;;
76733;SDS011;65660;53.288;14.666;2023-04-29T03:09:39;26.60;;;17.13;;
76733;SDS011;65660;53.288;14.666;2023-04-29T03:14:40;23.23;;;15.80;;
76733;SDS011;65660;53.288;14.666;2023-04-29T03:19:41;21.73;;;16.67;;
76733;SDS011;65660;53.288;14.666;2023-04-29T03:24:42;21.87;;;15.83;;
76733;SDS011;65660;53.288;14.666;2023-04-29T03:29:43;25.47;;;15.93;;
76733;SDS011;65660;53.288;14.666;2023-04-29T03:34:43;21.80;;;17.30;;
76733;SDS011;65660;53.288;14.666;2023-04-29T03:39:44;23.33;;;17.30;;
76733;SDS011;65660;53.288;14.666;2023-04-29T03:44:45;29.50;;;17.17;;
76733;SDS011;65660;53.288;14.666;2023-04-29T03:49:46;23.93;;;16.47;;
76733;SDS011;65660;53.288;14.666;2023-04-29T03:54:47;20.83;;;15.90;;
76733;SDS011;65660;53.288;14.666;2023-04-29T03:59:48;22.07;;;15.73;;
76733;SDS011;65660;53.288;14.666;2023-04-29T04:04:50;24.90;;;16.93;;
76733;SDS011;65660;53.288;14.666;2023-04-29T04:09:51;24.40;;;16.20;;
76733;SDS011;65660;53.288;14.666;2023-04-29T04:14:52;26.50;;;18.23;;
76733;SDS011;65660;53.288;14.666;2023-04-29T04:19:53;24.13;;;17.37;;
76733;SDS011;65660;53.288;14.666;2023-04-29T04:24:55;23.23;;;16.80;;
76733;SDS011;65660;53.288;14.666;2023-04-29T04:29:57;28.77;;;18.07;;
76733;SDS011;65660;53.288;14.666;2023-04-29T04:34:58;26.27;;;18.57;;
76733;SDS011;65660;53.288;14.666;2023-04-29T04:39:59;29.20;;;20.10;;
76733;SDS011;65660;53.288;14.666;2023-04-29T04:45:00;23.90;;;19.03;;
76733;SDS011;65660;53.288;14.666;2023-04-29T04:50:01;26.33;;;18.40;;
76733;SDS011;65660;53.288;14.666;2023-04-29T04:55:03;30.13;;;19.90;;
76733;SDS011;65660;53.288;14.666;2023-04-29T05:00:04;27.33;;;19.70;;
76733;SDS011;65660;53.288;14.666;2023-04-29T05:05:06;32.80;;;20.03;;
76733;SDS011;65660;53.288;14.666;2023-04-29T05:10:08;30.43;;;19.03;;
76733;SDS011;65660;53.288;14.666;2023-04-29T05:15:10;31.70;;;20.20;;
76733;SDS011;65660;53.288;14.666;2023-04-29T05:20:12;28.70;;;19.73;;
76733;SDS011;65660;53.288;14.666;2023-04-29T05:25:18;29.27;;;19.93;;
76733;SDS011;65660;53.288;14.666;2023-04-29T05:30:19;42.43;;;25.13;;
76733;SDS011;65660;53.288;14.666;2023-04-29T05:35:21;34.90;;;21.93;;
76733;SDS011;65660;53.288;14.666;2023-04-29T05:40:23;48.83;;;27.53;;
76733;SDS011;65660;53.288;14.666;2023-04-29T05:45:24;36.10;;;23.23;;
76733;SDS011;65660;53.288;14.666;2023-04-29T05:50:26;31.70;;;21.43;;
76733;SDS011;65660;53.288;14.666;2023-04-29T05:55:27;38.23;;;23.43;;
76733;SDS011;65660;53.288;14.666;2023-04-29T06:00:28;31.27;;;20.07;;
76733;SDS011;65660;53.288;14.666;2023-04-29T06:05:30;35.03;;;20.60;;
76733;SDS011;65660;53.288;14.666;2023-04-29T06:10:31;33.37;;;22.83;;
76733;SDS011;65660;53.288;14.666;2023-04-29T06:15:32;37.03;;;22.60;;
76733;SDS011;65660;53.288;14.666;2023-04-29T06:20:33;24.80;;;18.53;;
76733;SDS011;65660;53.288;14.666;2023-04-29T06:25:35;27.47;;;18.53;;
76733;SDS011;65660;53.288;14.666;2023-04-29T06:30:35;37.03;;;22.97;;
76733;SDS011;65660;53.288;14.666;2023-04-29T06:35:40;33.90;;;21.87;;
76733;SDS011;65660;53.288;14.666;2023-04-29T06:40:41;28.70;;;19.33;;
76733;SDS011;65660;53.288;14.666;2023-04-29T06:45:44;34.50;;;21.63;;
76733;SDS011;65660;53.288;14.666;2023-04-29T06:50:52;37.37;;;21.70;;
76733;SDS011;65660;53.288;14.666;2023-04-29T06:55:54;38.63;;;23.23;;
76733;SDS011;65660;53.288;14.666;2023-04-29T07:00:54;34.27;;;22.80;;
76733;SDS011;65660;53.288;14.666;2023-04-29T07:05:55;29.67;;;21.03;;
76733;SDS011;65660;53.288;14.666;2023-04-29T07:10:57;25.97;;;19.80;;
76733;SDS011;65660;53.288;14.666;2023-04-29T07:15:57;29.23;;;20.27;;
76733;SDS011;65660;53.288;14.666;2023-04-29T07:21:01;28.87;;;20.27;;
76733;SDS011;65660;53.288;14.666;2023-04-29T07:26:12;28.30;;;19.37;;
76733;SDS011;65660;53.288;14.666;2023-04-29T07:31:15;25.40;;;17.80;;
76733;SDS011;65660;53.288;14.666;2023-04-29T07:36:16;29.03;;;20.43;;
76733;SDS011;65660;53.288;14.666;2023-04-29T07:41:16;31.70;;;21.13;;
76733;SDS011;65660;53.288;14.666;2023-04-29T07:46:17;30.70;;;21.23;;
76733;SDS011;65660;53.288;14.666;2023-04-29T07:51:19;25.87;;;19.10;;
76733;SDS011;65660;53.288;14.666;2023-04-29T07:56:20;27.50;;;19.37;;
76733;SDS011;65660;53.288;14.666;2023-04-29T08:01:21;32.70;;;20.73;;
76733;SDS011;65660;53.288;14.666;2023-04-29T08:06:22;29.70;;;21.33;;
76733;SDS011;65660;53.288;14.666;2023-04-29T08:11:23;29.63;;;20.93;;
76733;SDS011;65660;53.288;14.666;2023-04-29T08:16:23;33.77;;;22.90;;
76733;SDS011;65660;53.288;14.666;2023-04-29T08:21:25;30.00;;;20.17;;
76733;SDS011;65660;53.288;14.666;2023-04-29T08:26:26;29.67;;;22.23;;
76733;SDS011;65660;53.288;14.666;2023-04-29T08:31:26;29.33;;;21.17;;
76733;SDS011;65660;53.288;14.666;2023-04-29T08:36:27;31.27;;;21.20;;
76733;SDS011;65660;53.288;14.666;2023-04-29T08:41:30;29.27;;;22.43;;
76733;SDS011;65660;53.288;14.666;2023-04-29T08:46:32;31.20;;;21.77;;
76733;SDS011;65660;53.288;14.666;2023-04-29T08:51:33;28.43;;;20.87;;
76733;SDS011;65660;53.288;14.666;2023-04-29T08:56:33;36.20;;;26.73;;
76733;SDS011;65660;53.288;14.666;2023-04-29T09:01:35;34.73;;;23.93;;
76733;SDS011;65660;53.288;14.666;2023-04-29T09:06:36;32.80;;;22.37;;
76733;SDS011;65660;53.288;14.666;2023-04-29T09:11:36;34.97;;;25.10;;
76733;SDS011;65660;53.288;14.666;2023-04-29T09:16:38;37.30;;;24.57;;
76733;SDS011;65660;53.288;14.666;2023-04-29T09:21:38;32.10;;;24.07;;
76733;SDS011;65660;53.288;14.666;2023-04-29T09:26:40;35.73;;;24.20;;
76733;SDS011;65660;53.288;14.666;2023-04-29T09:31:41;29.10;;;20.83;;
76733;SDS011;65660;53.288;14.666;2023-04-29T09:36:46;35.47;;;23.53;;
76733;SDS011;65660;53.288;14.666;2023-04-29T09:46:56;35.37;;;23.10;;
76733;SDS011;65660;53.288;14.666;2023-04-29T09:51:59;42.73;;;27.73;;
76733;SDS011;65660;53.288;14.666;2023-04-29T09:57:01;42.43;;;27.23;;
76733;SDS011;65660;53.288;14.666;2023-04-29T10:02:06;38.30;;;26.27;;
76733;SDS011;65660;53.288;14.666;2023-04-29T10:07:13;44.03;;;27.77;;
76733;SDS011;65660;53.288;14.666;2023-04-29T10:12:15;34.17;;;24.30;;
76733;SDS011;65660;53.288;14.666;2023-04-29T10:17:20;36.37;;;24.03;;
76733;SDS011;65660;53.288;14.666;2023-04-29T10:22:35;38.97;;;25.80;;
76733;SDS011;65660;53.288;14.666;2023-04-29T10:27:44;41.50;;;25.47;;
76733;SDS011;65660;53.288;14.666;2023-04-29T10:32:46;39.97;;;25.33;;
76733;SDS011;65660;53.288;14.666;2023-04-29T10:37:48;38.10;;;25.37;;
76733;SDS011;65660;53.288;14.666;2023-04-29T10:42:50;40.47;;;26.00;;
76733;SDS011;65660;53.288;14.666;2023-04-29T10:53:02;37.37;;;25.27;;
76733;SDS011;65660;53.288;14.666;2023-04-29T10:58:04;31.00;;;21.70;;
76733;SDS011;65660;53.288;14.666;2023-04-29T11:03:05;35.70;;;23.80;;
76733;SDS011;65660;53.288;14.666;2023-04-29T11:08:12;32.40;;;22.80;;
76733;SDS011;65660;53.288;14.666;2023-04-29T11:18:23;38.83;;;25.30;;
76733;SDS011;65660;53.288;14.666;2023-04-29T11:23:24;43.08;;;27.63;;
76733;SDS011;65660;53.288;14.666;2023-04-29T11:28:26;46.33;;;29.33;;
76733;SDS011;65660;53.288;14.666;2023-04-29T11:33:30;35.92;;;25.42;;
76733;SDS011;65660;53.288;14.666;2023-04-29T11:38:31;39.78;;;25.80;;
76733;SDS011;65660;53.288;14.666;2023-04-29T11:43:32;37.45;;;27.05;;
76733;SDS011;65660;53.288;14.666;2023-04-29T11:48:33;36.43;;;24.07;;
76733;SDS011;65660;53.288;14.666;2023-04-29T11:53:33;34.22;;;24.33;;
76733;SDS011;65660;53.288;14.666;2023-04-29T11:58:34;42.17;;;28.58;;
76733;SDS011;65660;53.288;14.666;2023-04-29T12:03:35;45.42;;;27.95;;
76733;SDS011;65660;53.288;14.666;2023-04-29T12:08:36;42.17;;;28.77;;
76733;SDS011;65660;53.288;14.666;2023-04-29T12:13:37;34.07;;;23.70;;
76733;SDS011;65660;53.288;14.666;2023-04-29T12:18:37;29.83;;;21.83;;
76733;SDS011;65660;53.288;14.666;2023-04-29T12:23:39;30.10;;;20.25;;
76733;SDS011;65660;53.288;14.666;2023-04-29T12:28:40;27.58;;;19.20;;
76733;SDS011;65660;53.288;14.666;2023-04-29T12:33:42;28.80;;;20.02;;
76733;SDS011;65660;53.288;14.666;2023-04-29T12:38:43;28.55;;;18.70;;
76733;SDS011;65660;53.288;14.666;2023-04-29T12:43:44;28.60;;;18.67;;
76733;SDS011;65660;53.288;14.666;2023-04-29T12:48:45;24.60;;;17.35;;
76733;SDS011;65660;53.288;14.666;2023-04-29T12:53:46;27.33;;;18.75;;
76733;SDS011;65660;53.288;14.666;2023-04-29T12:58:47;29.85;;;20.15;;
76733;SDS011;65660;53.288;14.666;2023-04-29T13:03:47;23.70;;;17.67;;
76733;SDS011;65660;53.288;14.666;2023-04-29T13:08:48;26.80;;;19.38;;
76733;SDS011;65660;53.288;14.666;2023-04-29T13:13:49;23.38;;;17.48;;
76733;SDS011;65660;53.288;14.666;2023-04-29T13:18:50;24.97;;;17.80;;
76733;SDS011;65660;53.288;14.666;2023-04-29T13:23:51;24.23;;;18.53;;
76733;SDS011;65660;53.288;14.666;2023-04-29T13:28:52;27.75;;;19.63;;
76733;SDS011;65660;53.288;14.666;2023-04-29T13:33:52;26.47;;;19.43;;
76733;SDS011;65660;53.288;14.666;2023-04-29T13:38:54;25.70;;;18.07;;
76733;SDS011;65660;53.288;14.666;2023-04-29T13:43:55;25.55;;;18.52;;
76733;SDS011;65660;53.288;14.666;2023-04-29T13:48:55;25.03;;;18.73;;
76733;SDS011;65660;53.288;14.666;2023-04-29T13:53:56;26.87;;;19.67;;
76733;SDS011;65660;53.288;14.666;2023-04-29T13:58:57;28.83;;;20.58;;
76733;SDS011;65660;53.288;14.666;2023-04-29T14:03:58;27.43;;;19.87;;
76733;SDS011;65660;53.288;14.666;2023-04-29T14:08:59;25.53;;;18.43;;
76733;SDS011;65660;53.288;14.666;2023-04-29T14:14:00;24.77;;;18.85;;
76733;SDS011;65660;53.288;14.666;2023-04-29T14:19:01;23.58;;;17.77;;
76733;SDS011;65660;53.288;14.666;2023-04-29T14:24:02;26.13;;;18.63;;
76733;SDS011;65660;53.288;14.666;2023-04-29T14:29:03;23.80;;;17.65;;
76733;SDS011;65660;53.288;14.666;2023-04-29T14:34:04;22.00;;;15.57;;
76733;SDS011;65660;53.288;14.666;2023-04-29T14:39:05;22.08;;;15.40;;
76733;SDS011;65660;53.288;14.666;2023-04-29T14:44:06;21.65;;;15.82;;
76733;SDS011;65660;53.288;14.666;2023-04-29T14:49:07;18.92;;;14.32;;
76733;SDS011;65660;53.288;14.666;2023-04-29T14:54:07;19.38;;;14.30;;
76733;SDS011;65660;53.288;14.666;2023-04-29T14:59:08;20.40;;;13.75;;
76733;SDS011;65660;53.288;14.666;2023-04-29T15:04:09;20.40;;;14.10;;
76733;SDS011;65660;53.288;14.666;2023-04-29T15:09:10;19.02;;;13.85;;
76733;SDS011;65660;53.288;14.666;2023-04-29T15:14:11;18.80;;;12.82;;
76733;SDS011;65660;53.288;14.666;2023-04-29T15:19:11;17.50;;;12.43;;
76733;SDS011;65660;53.288;14.666;2023-04-29T15:24:12;17.83;;;11.60;;
76733;SDS011;65660;53.288;14.666;2023-04-29T15:29:13;15.82;;;11.20;;
76733;SDS011;65660;53.288;14.666;2023-04-29T15:34:14;18.45;;;11.63;;
76733;SDS011;65660;53.288;14.666;2023-04-29T15:39:14;14.30;;;10.70;;
76733;SDS011;65660;53.288;14.666;2023-04-29T15:44:15;13.52;;;11.95;;
76733;SDS011;65660;53.288;14.666;2023-04-29T15:49:16;16.95;;;11.27;;
76733;SDS011;65660;53.288;14.666;2023-04-29T15:54:18;14.70;;;11.45;;
76733;SDS011;65660;53.288;14.666;2023-04-29T15:59:19;13.13;;;10.30;;
76733;SDS011;65660;53.288;14.666;2023-04-29T16:04:21;12.85;;;9.77;;
76733;SDS011;65660;53.288;14.666;2023-04-29T16:09:22;11.82;;;10.18;;
76733;SDS011;65660;53.288;14.666;2023-04-29T16:14:23;14.32;;;10.45;;
76733;SDS011;65660;53.288;14.666;2023-04-29T16:19:24;12.25;;;9.77;;
76733;SDS011;65660;53.288;14.666;2023-04-29T16:24:25;12.50;;;9.30;;
76733;SDS011;65660;53.288;14.666;2023-04-29T16:29:26;12.13;;;9.00;;
76733;SDS011;65660;53.288;14.666;2023-04-29T16:34:28;12.50;;;8.52;;
76733;SDS011;65660;53.288;14.666;2023-04-29T16:39:29;13.10;;;7.88;;
76733;SDS011;65660;53.288;14.666;2023-04-29T16:44:30;9.65;;;6.57;;
76733;SDS011;65660;53.288;14.666;2023-04-29T16:49:31;11.43;;;7.68;;
76733;SDS011;65660;53.288;14.666;2023-04-29T16:54:32;10.52;;;7.60;;
76733;SDS011;65660;53.288;14.666;2023-04-29T16:59:32;11.25;;;7.10;;
76733;SDS011;65660;53.288;14.666;2023-04-29T17:04:33;10.57;;;7.30;;
76733;SDS011;65660;53.288;14.666;2023-04-29T17:09:34;9.40;;;7.60;;
76733;SDS011;65660;53.288;14.666;2023-04-29T17:14:36;9.82;;;8.10;;
76733;SDS011;65660;53.288;14.666;2023-04-29T17:19:37;9.13;;;6.75;;
76733;SDS011;65660;53.288;14.666;2023-04-29T17:24:38;6.75;;;6.05;;
76733;SDS011;65660;53.288;14.666;2023-04-29T17:29:38;7.57;;;6.40;;
76733;SDS011;65660;53.288;14.666;2023-04-29T17:34:40;7.35;;;6.28;;
76733;SDS011;65660;53.288;14.666;2023-04-29T17:39:41;7.68;;;6.88;;
76733;SDS011;65660;53.288;14.666;2023-04-29T17:44:41;10.00;;;8.10;;
76733;SDS011;65660;53.288;14.666;2023-04-29T17:49:42;7.28;;;6.50;;
76733;SDS011;65660;53.288;14.666;2023-04-29T17:54:44;11.15;;;7.25;;
76733;SDS011;65660;53.288;14.666;2023-04-29T17:59:44;9.52;;;7.80;;
76733;SDS011;65660;53.288;14.666;2023-04-29T18:04:46;7.40;;;6.60;;
76733;SDS011;65660;53.288;14.666;2023-04-29T18:09:47;9.73;;;8.73;;
76733;SDS011;65660;53.288;14.666;2023-04-29T18:14:48;9.10;;;7.00;;
76733;SDS011;65660;53.288;14.666;2023-04-29T18:19:48;9.63;;;7.77;;
76733;SDS011;65660;53.288;14.666;2023-04-29T18:24:49;8.80;;;7.77;;
76733;SDS011;65660;53.288;14.666;2023-04-29T18:29:50;7.80;;;6.87;;
76733;SDS011;65660;53.288;14.666;2023-04-29T18:34:50;8.57;;;6.70;;
76733;SDS011;65660;53.288;14.666;2023-04-29T18:39:51;10.57;;;7.73;;
76733;SDS011;65660;53.288;14.666;2023-04-29T18:44:52;10.67;;;8.60;;
76733;SDS011;65660;53.288;14.666;2023-04-29T18:49:53;10.33;;;8.17;;
76733;SDS011;65660;53.288;14.666;2023-04-29T18:54:54;13.10;;;8.30;;
76733;SDS011;65660;53.288;14.666;2023-04-29T18:59:54;12.73;;;7.87;;
76733;SDS011;65660;53.288;14.666;2023-04-29T19:04:56;10.87;;;7.00;;
76733;SDS011;65660;53.288;14.666;2023-04-29T19:09:56;9.03;;;7.13;;
76733;SDS011;65660;53.288;14.666;2023-04-29T19:14:57;10.83;;;7.50;;
76733;SDS011;65660;53.288;14.666;2023-04-29T19:19:58;8.87;;;6.63;;
76733;SDS011;65660;53.288;14.666;2023-04-29T19:25:01;11.10;;;6.80;;
76733;SDS011;65660;53.288;14.666;2023-04-29T19:30:02;10.23;;;6.80;;
76733;SDS011;65660;53.288;14.666;2023-04-29T19:35:04;9.13;;;6.93;;
76733;SDS011;65660;53.288;14.666;2023-04-29T19:40:06;8.63;;;7.17;;
76733;SDS011;65660;53.288;14.666;2023-04-29T19:45:07;10.90;;;7.20;;
76733;SDS011;65660;53.288;14.666;2023-04-29T19:50:08;11.33;;;7.70;;
76733;SDS011;65660;53.288;14.666;2023-04-29T19:55:10;11.80;;;8.70;;
76733;SDS011;65660;53.288;14.666;2023-04-29T20:00:11;15.60;;;10.67;;
76733;SDS011;65660;53.288;14.666;2023-04-29T20:05:12;17.47;;;11.70;;
76733;SDS011;65660;53.288;14.666;2023-04-29T20:10:13;15.17;;;10.70;;
76733;SDS011;65660;53.288;14.666;2023-04-29T20:15:14;15.53;;;10.30;;
76733;SDS011;65660;53.288;14.666;2023-04-29T20:20:15;12.73;;;10.43;;
76733;SDS011;65660;53.288;14.666;2023-04-29T20:25:15;13.47;;;9.57;;
76733;SDS011;65660;53.288;14.666;2023-04-29T20:30:16;9.00;;;7.60;;
76733;SDS011;65660;53.288;14.666;2023-04-29T20:35:17;9.13;;;7.37;;
76733;SDS011;65660;53.288;14.666;2023-04-29T20:40:18;9.13;;;7.83;;
76733;SDS011;65660;53.288;14.666;2023-04-29T20:45:19;10.50;;;7.07;;
76733;SDS011;65660;53.288;14.666;2023-04-29T20:50:19;10.40;;;7.37;;
76733;SDS011;65660;53.288;14.666;2023-04-29T20:55:20;9.10;;;7.37;;
76733;SDS011;65660;53.288;14.666;2023-04-29T21:00:21;8.43;;;6.43;;
76733;SDS011;65660;53.288;14.666;2023-04-29T21:05:22;8.30;;;6.10;;
76733;SDS011;65660;53.288;14.666;2023-04-29T21:10:23;9.73;;;8.73;;
76733;SDS011;65660;53.288;14.666;2023-04-29T21:15:23;8.33;;;6.70;;
76733;SDS011;65660;53.288;14.666;2023-04-29T21:20:24;8.77;;;6.43;;
76733;SDS011;65660;53.288;14.666;2023-04-29T21:25:25;9.77;;;6.37;;
76733;SDS011;65660;53.288;14.666;2023-04-29T21:30:26;7.30;;;6.03;;
76733;SDS011;65660;53.288;14.666;2023-04-29T21:35:27;7.77;;;5.50;;
76733;SDS011;65660;53.288;14.666;2023-04-29T21:40:28;6.27;;;5.47;;
76733;SDS011;65660;53.288;14.666;2023-04-29T21:45:29;9.30;;;5.67;;
76733;SDS011;65660;53.288;14.666;2023-04-29T21:50:30;7.00;;;5.40;;
76733;SDS011;65660;53.288;14.666;2023-04-29T21:55:31;6.87;;;5.50;;
76733;SDS011;65660;53.288;14.666;2023-04-29T22:00:31;6.97;;;5.70;;
76733;SDS011;65660;53.288;14.666;2023-04-29T22:05:33;9.07;;;5.50;;
76733;SDS011;65660;53.288;14.666;2023-04-29T22:10:34;6.33;;;5.37;;
76733;SDS011;65660;53.288;14.666;2023-04-29T22:15:35;7.40;;;5.43;;
76733;SDS011;65660;53.288;14.666;2023-04-29T22:20:36;8.07;;;5.67;;
76733;SDS011;65660;53.288;14.666;2023-04-29T22:25:37;7.93;;;5.30;;
76733;SDS011;65660;53.288;14.666;2023-04-29T22:30:38;8.83;;;5.80;;
76733;SDS011;65660;53.288;14.666;2023-04-29T22:35:38;9.03;;;5.50;;
76733;SDS011;65660;53.288;14.666;2023-04-29T22:40:39;7.13;;;5.10;;
76733;SDS011;65660;53.288;14.666;2023-04-29T22:45:40;6.83;;;5.23;;
76733;SDS011;65660;53.288;14.666;2023-04-29T22:50:41;9.67;;;4.60;;
76733;SDS011;65660;53.288;14.666;2023-04-29T22:55:51;5.67;;;4.60;;
76733;SDS011;65660;53.288;14.666;2023-04-29T23:00:53;6.50;;;4.60;;
76733;SDS011;65660;53.288;14.666;2023-04-29T23:05:56;9.33;;;4.50;;
76733;SDS011;65660;53.288;14.666;2023-04-29T23:10:58;6.70;;;4.20;;
76733;SDS011;65660;53.288;14.666;2023-04-29T23:15:59;5.10;;;4.13;;
76733;SDS011;65660;53.288;14.666;2023-04-29T23:20:59;7.90;;;4.20;;
76733;SDS011;65660;53.288;14.666;2023-04-29T23:26:00;6.40;;;3.80;;
76733;SDS011;65660;53.288;14.666;2023-04-29T23:31:01;5.80;;;4.23;;
76733;SDS011;65660;53.288;14.666;2023-04-29T23:36:02;8.77;;;4.43;;
76733;SDS011;65660;53.288;14.666;2023-04-29T23:41:03;9.33;;;4.63;;
76733;SDS011;65660;53.288;14.666;2023-04-29T23:46:04;6.63;;;4.23;;
76733;SDS011;65660;53.288;14.666;2023-04-29T23:51:05;7.40;;;4.27;;
76733;SDS011;65660;53.288;14.666;2023-04-29T23:56:05;8.47;;;5.10;;
